Ruby — A8UZ3 — position and weather

sailwx.info

Track history (hours):
 
Tides and Currents Weather Stations Pressure Air Temp Water Temp Dewpoint Dewpoint Depression Visibility Wind Speed Wind Dir Waves Ship Positions

Ruby

Last reported at 2014-Mar-14 11:25 UTC. Time now 2014-Jul-25 09:03 UTC.
Position N 01°17' E 103°24'.
Warning: this ship's position is months out of date.

Length 278 m; draft 8.9 m.

Type: Tanker. MMSI: 636014576.

Date/timePositionNaut miles runAvg speedWind from/ knotsBaromVisibWave heightAir tempDewpointWater temp
2014-Mar-14 11:25N 01°17' E 103°24'0 0.1
2014-Mar-14 10:31N 01°17' E 103°24'0 0.0
2014-Mar-14 07:13N 01°17' E 103°24'0 0.0
2014-Mar-14 04:19N 01°17' E 103°24'0 0.0
2014-Mar-13 17:13N 01°17' E 103°24'0 0.0
2014-Mar-12 15:12N 01°17' E 103°24'0 0.0
2014-Mar-11 10:29N 01°17' E 103°24'0 0.0
2014-Mar-11 08:29N 01°17' E 103°24'0 0.0
2014-Mar-11 07:05N 01°17' E 103°24'0 0.0
2014-Mar-09 07:09N 01°17' E 103°24'0 0.0
2014-Mar-08 17:27N 01°17' E 103°24'0 0.0
2014-Mar-08 15:09N 01°17' E 103°24'7 1.1
2014-Mar-08 08:33N 01°13' E 103°30'9 9.2
2014-Mar-08 07:33N 01°13' E 103°40'0 0.3
2014-Mar-08 06:33N 01°13' E 103°39'0 0.0
2014-Mar-08 05:33N 01°13' E 103°39'1 0.7
2014-Mar-08 04:33N 01°13' E 103°40'2 1.8
2014-Mar-08 03:32N 01°14' E 103°41'0 0.0
2014-Mar-08 02:32N 01°14' E 103°41'0 0.0
2014-Mar-08 01:32N 01°14' E 103°41'0 0.0
2014-Mar-08 00:32N 01°14' E 103°41'0 0.0
2014-Mar-07 23:32N 01°14' E 103°41'0 0.0
2014-Mar-07 22:31N 01°14' E 103°41'0 0.0
2014-Mar-07 21:31N 01°14' E 103°41'0 0.0
2014-Mar-07 20:31N 01°14' E 103°41'0 0.0
2014-Mar-07 19:31N 01°14' E 103°41'0 0.0
2014-Mar-07 18:31N 01°14' E 103°41'0 0.0
2014-Mar-07 16:31N 01°14' E 103°41'0 0.0
2014-Mar-07 15:31N 01°14' E 103°41'0 0.0
2014-Mar-07 14:31N 01°14' E 103°41'0 0.0
2014-Mar-07 13:31N 01°14' E 103°41'0 0.0
2014-Mar-07 11:31N 01°14' E 103°41'0 0.0
2014-Mar-07 10:31N 01°14' E 103°41'0 0.0
2014-Mar-07 09:25N 01°14' E 103°41'0 0.0
2014-Mar-07 08:31N 01°14' E 103°41'0 0.0
2014-Mar-07 07:31N 01°14' E 103°41'0 0.0
2014-Mar-07 06:31N 01°14' E 103°41'0 0.0
2014-Mar-07 05:31N 01°14' E 103°41'0 0.0
2014-Mar-07 04:31N 01°14' E 103°41'0 0.0
2014-Mar-07 03:31N 01°14' E 103°41'0 0.0
2014-Mar-07 02:31N 01°14' E 103°41'0 0.0
2014-Mar-07 01:31N 01°14' E 103°41'0 0.0
2014-Mar-07 00:31N 01°14' E 103°41'0 0.0
2014-Mar-06 23:31N 01°14' E 103°41'0 0.0
2014-Mar-06 22:25N 01°14' E 103°41'0 0.0
2014-Mar-06 21:31N 01°14' E 103°41'0 0.0
2014-Mar-06 20:31N 01°14' E 103°41'0 0.0
2014-Mar-06 19:31N 01°14' E 103°41'0 0.0
2014-Mar-06 18:31N 01°14' E 103°41'0 0.0
2014-Mar-06 17:31N 01°14' E 103°41'0 0.0
2014-Mar-06 16:31N 01°14' E 103°41'0 0.0
2014-Mar-06 15:25N 01°14' E 103°41'0 0.0
2014-Mar-06 14:31N 01°14' E 103°41'0 0.0
2014-Mar-06 13:31N 01°14' E 103°41'0 0.0
2014-Mar-06 12:24N 01°14' E 103°41'0 0.0
2014-Mar-06 11:30N 01°14' E 103°41'0 0.0
2014-Mar-06 10:24N 01°14' E 103°41'0 0.0
2014-Mar-06 09:30N 01°14' E 103°41'0 0.0
2014-Mar-06 08:30N 01°14' E 103°41'0 0.0
2014-Mar-06 07:30N 01°14' E 103°41'0 0.0
2014-Mar-06 06:30N 01°14' E 103°41'0 0.0
2014-Mar-06 05:30N 01°14' E 103°41'0 0.0
2014-Mar-06 04:30N 01°14' E 103°41'0 0.0
2014-Mar-06 03:24N 01°14' E 103°41'0 0.0
2014-Mar-06 02:30N 01°14' E 103°41'0 0.0
2014-Mar-06 01:30N 01°14' E 103°41'0 0.4
2014-Mar-06 00:33N 01°14' E 103°42'3 2.6
2014-Mar-05 23:33N 01°12' E 103°40'0 0.2
2014-Mar-05 22:33N 01°12' E 103°40'0 0.0
2014-Mar-05 21:33N 01°12' E 103°40'0 0.1
2014-Mar-05 20:33N 01°12' E 103°40'0 0.0
2014-Mar-05 18:33N 01°12' E 103°40'0 0.1
2014-Mar-05 17:33N 01°12' E 103°40'0 0.0
2014-Mar-05 16:33N 01°12' E 103°40'0 0.1
2014-Mar-05 15:33N 01°12' E 103°40'0 0.0
2014-Mar-05 14:33N 01°12' E 103°40'0 0.0
2014-Mar-05 13:33N 01°12' E 103°40'0 0.0
2014-Mar-05 12:34N 01°12' E 103°40'1 1.4
2014-Mar-05 11:33N 01°12' E 103°38'4 3.7
2014-Mar-05 10:33N 01°12' E 103°35'4 4.5
2014-Mar-05 09:33N 01°09' E 103°31'0 0.4
2014-Mar-05 08:33N 01°09' E 103°31'1 1.0
2014-Mar-05 07:33N 01°10' E 103°31'  
Track history (hours):
 
Tides and Currents Weather Stations Pressure Air Temp Water Temp Dewpoint Dewpoint Depression Visibility Wind Speed Wind Dir Waves Ship Positions

Ruby

Last reported at 2014-Mar-14 11:25 UTC. Time now 2014-Jul-25 09:03 UTC.
Position N 01°17' E 103°24'.
Warning: this ship's position is months out of date.

Length 278 m; draft 8.9 m.

Type: Tanker. MMSI: 636014576.

Date/timePositionNaut miles runAvg speedWind from/ knotsBaromVisibWave heightAir tempDewpointWater temp
2014-Mar-14 11:25N 01°17' E 103°24'0 0.1
2014-Mar-14 10:31N 01°17' E 103°24'0 0.0
2014-Mar-14 07:13N 01°17' E 103°24'0 0.0
2014-Mar-14 04:19N 01°17' E 103°24'0 0.0
2014-Mar-13 17:13N 01°17' E 103°24'0 0.0
2014-Mar-12 15:12N 01°17' E 103°24'0 0.0
2014-Mar-11 10:29N 01°17' E 103°24'0 0.0
2014-Mar-11 08:29N 01°17' E 103°24'0 0.0
2014-Mar-11 07:05N 01°17' E 103°24'0 0.0
2014-Mar-09 07:09N 01°17' E 103°24'0 0.0
2014-Mar-08 17:27N 01°17' E 103°24'0 0.0
2014-Mar-08 15:09N 01°17' E 103°24'7 1.1
2014-Mar-08 08:33N 01°13' E 103°30'9 9.2
2014-Mar-08 07:33N 01°13' E 103°40'0 0.3
2014-Mar-08 06:33N 01°13' E 103°39'0 0.0
2014-Mar-08 05:33N 01°13' E 103°39'1 0.7
2014-Mar-08 04:33N 01°13' E 103°40'2 1.8
2014-Mar-08 03:32N 01°14' E 103°41'0 0.0
2014-Mar-08 02:32N 01°14' E 103°41'0 0.0
2014-Mar-08 01:32N 01°14' E 103°41'0 0.0
2014-Mar-08 00:32N 01°14' E 103°41'0 0.0
2014-Mar-07 23:32N 01°14' E 103°41'0 0.0
2014-Mar-07 22:31N 01°14' E 103°41'0 0.0
2014-Mar-07 21:31N 01°14' E 103°41'0 0.0
2014-Mar-07 20:31N 01°14' E 103°41'0 0.0
2014-Mar-07 19:31N 01°14' E 103°41'0 0.0
2014-Mar-07 18:31N 01°14' E 103°41'0 0.0
2014-Mar-07 16:31N 01°14' E 103°41'0 0.0
2014-Mar-07 15:31N 01°14' E 103°41'0 0.0
2014-Mar-07 14:31N 01°14' E 103°41'0 0.0
2014-Mar-07 13:31N 01°14' E 103°41'0 0.0
2014-Mar-07 11:31N 01°14' E 103°41'0 0.0
2014-Mar-07 10:31N 01°14' E 103°41'0 0.0
2014-Mar-07 09:25N 01°14' E 103°41'0 0.0
2014-Mar-07 08:31N 01°14' E 103°41'0 0.0
2014-Mar-07 07:31N 01°14' E 103°41'0 0.0
2014-Mar-07 06:31N 01°14' E 103°41'0 0.0
2014-Mar-07 05:31N 01°14' E 103°41'0 0.0
2014-Mar-07 04:31N 01°14' E 103°41'0 0.0
2014-Mar-07 03:31N 01°14' E 103°41'0 0.0
2014-Mar-07 02:31N 01°14' E 103°41'0 0.0
2014-Mar-07 01:31N 01°14' E 103°41'0 0.0
2014-Mar-07 00:31N 01°14' E 103°41'0 0.0
2014-Mar-06 23:31N 01°14' E 103°41'0 0.0
2014-Mar-06 22:25N 01°14' E 103°41'0 0.0
2014-Mar-06 21:31N 01°14' E 103°41'0 0.0
2014-Mar-06 20:31N 01°14' E 103°41'0 0.0
2014-Mar-06 19:31N 01°14' E 103°41'0 0.0
2014-Mar-06 18:31N 01°14' E 103°41'0 0.0
2014-Mar-06 17:31N 01°14' E 103°41'0 0.0
2014-Mar-06 16:31N 01°14' E 103°41'0 0.0
2014-Mar-06 15:25N 01°14' E 103°41'0 0.0
2014-Mar-06 14:31N 01°14' E 103°41'0 0.0
2014-Mar-06 13:31N 01°14' E 103°41'0 0.0
2014-Mar-06 12:24N 01°14' E 103°41'0 0.0
2014-Mar-06 11:30N 01°14' E 103°41'0 0.0
2014-Mar-06 10:24N 01°14' E 103°41'0 0.0
2014-Mar-06 09:30N 01°14' E 103°41'0 0.0
2014-Mar-06 08:30N 01°14' E 103°41'0 0.0
2014-Mar-06 07:30N 01°14' E 103°41'0 0.0
2014-Mar-06 06:30N 01°14' E 103°41'0 0.0
2014-Mar-06 05:30N 01°14' E 103°41'0 0.0
2014-Mar-06 04:30N 01°14' E 103°41'0 0.0
2014-Mar-06 03:24N 01°14' E 103°41'0 0.0
2014-Mar-06 02:30N 01°14' E 103°41'0 0.0
2014-Mar-06 01:30N 01°14' E 103°41'0 0.4
2014-Mar-06 00:33N 01°14' E 103°42'3 2.6
2014-Mar-05 23:33N 01°12' E 103°40'0 0.2
2014-Mar-05 22:33N 01°12' E 103°40'0 0.0
2014-Mar-05 21:33N 01°12' E 103°40'0 0.1
2014-Mar-05 20:33N 01°12' E 103°40'0 0.0
2014-Mar-05 18:33N 01°12' E 103°40'0 0.1
2014-Mar-05 17:33N 01°12' E 103°40'0 0.0
2014-Mar-05 16:33N 01°12' E 103°40'0 0.1
2014-Mar-05 15:33N 01°12' E 103°40'0 0.0
2014-Mar-05 14:33N 01°12' E 103°40'0 0.0
2014-Mar-05 13:33N 01°12' E 103°40'0 0.0
2014-Mar-05 12:34N 01°12' E 103°40'1 1.4
2014-Mar-05 11:33N 01°12' E 103°38'4 3.7
2014-Mar-05 10:33N 01°12' E 103°35'4 4.5
2014-Mar-05 09:33N 01°09' E 103°31'0 0.4
2014-Mar-05 08:33N 01°09' E 103°31'1 1.0
2014-Mar-05 07:33N 01°10' E 103°31'  

Dump ship's entire track history